Time;durP1;ratioP1;P1;durP2;ratioP2;P2;SDS_P1;SDS_P2;PMS_P1;PMS_P2;Temp;Humidity;BMP_temperature;BMP_pressure;BME280_temperature;BME280_humidity;BME280_pressure;Samples;Min_cycle;Max_cycle;Signal;HPM_P1;HPM_P2
2022/07/24 00:02:27;;;;;;;7.80;5.45;;;28.60;96.70;;;;;;5085611;28;20043;-81
2022/07/24 00:04:56;;;;;;;7.85;5.70;;;28.60;96.70;;;;;;5085585;28;20052;-80
2022/07/24 00:07:25;;;;;;;7.32;5.38;;;28.60;96.70;;;;;;5079194;28;20039;-83
2022/07/24 00:09:54;;;;;;;6.93;5.72;;;28.70;96.70;;;;;;5077393;28;20123;-82
2022/07/24 00:12:23;;;;;;;8.70;5.55;;;28.70;96.70;;;;;;5056340;28;20105;-83
2022/07/24 00:14:51;;;;;;;6.93;5.80;;;28.70;96.70;;;;;;5079662;28;20040;-83
2022/07/24 00:17:21;;;;;;;9.60;5.65;;;28.60;96.70;;;;;;5074832;28;20505;-81
2022/07/24 00:19:49;;;;;;;6.97;5.03;;;28.50;96.70;;;;;;5070972;28;20129;-80
2022/07/24 00:22:17;;;;;;;7.50;5.70;;;28.40;96.70;;;;;;5073127;28;20044;-81
2022/07/24 00:24:46;;;;;;;8.07;5.25;;;28.50;96.70;;;;;;5068054;28;20101;-79
2022/07/24 00:27:14;;;;;;;8.25;4.90;;;28.50;96.70;;;;;;5073014;28;20433;-80
2022/07/24 00:29:42;;;;;;;5.90;5.30;;;28.50;96.70;;;;;;5079831;28;20043;-81
2022/07/24 00:32:10;;;;;;;6.72;5.15;;;28.50;96.70;;;;;;5056964;28;20517;-80
2022/07/24 00:34:40;;;;;;;6.82;5.57;;;28.40;96.70;;;;;;5084615;28;20119;-81
2022/07/24 00:37:08;;;;;;;6.45;4.78;;;28.40;96.70;;;;;;5081970;28;20097;-81
2022/07/24 00:39:36;;;;;;;6.75;4.90;;;28.40;96.70;;;;;;5085417;28;20558;-81
2022/07/24 00:42:05;;;;;;;6.68;4.85;;;28.40;96.70;;;;;;5084149;28;20048;-81
2022/07/24 00:44:33;;;;;;;7.10;5.13;;;28.30;96.70;;;;;;5078651;28;20052;-81
2022/07/24 00:47:02;;;;;;;5.93;4.90;;;28.30;96.70;;;;;;5080304;28;20040;-81
2022/07/24 00:49:31;;;;;;;6.15;5.25;;;28.20;96.70;;;;;;5088001;28;20044;-82
2022/07/24 00:52:01;;;;;;;7.90;5.00;;;28.30;96.70;;;;;;5085707;28;20044;-83
2022/07/24 00:54:30;;;;;;;9.10;5.10;;;28.20;96.70;;;;;;5087769;28;20760;-82
2022/07/24 00:56:58;;;;;;;7.00;4.65;;;28.40;96.70;;;;;;5064392;28;20059;-81
2022/07/24 00:59:26;;;;;;;5.63;4.80;;;28.40;96.70;;;;;;5084688;28;20048;-81
2022/07/24 01:01:54;;;;;;;11.32;5.40;;;28.40;96.70;;;;;;5081786;28;20097;-81
2022/07/24 01:04:22;;;;;;;9.32;5.53;;;28.30;96.70;;;;;;5091795;28;20051;-81
2022/07/24 01:06:51;;;;;;;6.70;4.97;;;28.20;96.70;;;;;;5079515;28;20051;-81
2022/07/24 01:09:22;;;;;;;7.90;5.78;;;28.10;96.70;;;;;;5082705;28;20036;-81
2022/07/24 01:11:51;;;;;;;6.57;5.22;;;28.00;96.70;;;;;;5086191;28;20051;-81
2022/07/24 01:14:20;;;;;;;7.20;5.35;;;27.90;96.70;;;;;;5061221;28;20033;-81
2022/07/24 01:16:48;;;;;;;6.25;5.10;;;27.90;96.70;;;;;;5075691;28;20436;-81
2022/07/24 01:19:17;;;;;;;7.53;5.28;;;28.00;96.70;;;;;;5068853;28;20163;-82
2022/07/24 01:21:49;;;;;;;7.13;5.18;;;28.00;96.70;;;;;;5079900;28;20042;-81
2022/07/24 01:24:17;;;;;;;9.75;5.18;;;27.90;96.70;;;;;;5075104;28;20052;-81
2022/07/24 01:26:46;;;;;;;6.30;5.32;;;27.90;96.70;;;;;;5082971;28;20051;-83
2022/07/24 01:29:15;;;;;;;6.15;5.53;;;28.00;96.70;;;;;;5067616;28;20151;-82
2022/07/24 01:31:43;;;;;;;8.60;6.00;;;28.00;96.70;;;;;;5069317;28;20044;-83
2022/07/24 01:34:12;;;;;;;7.13;5.32;;;28.00;96.70;;;;;;5083741;28;20052;-83
2022/07/24 01:36:41;;;;;;;5.82;5.05;;;27.90;96.70;;;;;;5081936;28;20085;-81
2022/07/24 01:39:10;;;;;;;8.02;5.82;;;27.80;96.70;;;;;;5075523;28;20494;-81
2022/07/24 01:41:39;;;;;;;9.02;6.00;;;27.90;96.70;;;;;;5067003;28;20052;-80
2022/07/24 01:44:07;;;;;;;6.93;5.65;;;27.90;96.70;;;;;;5074192;28;20040;-81
2022/07/24 01:46:35;;;;;;;6.68;5.13;;;27.90;96.70;;;;;;5091691;28;20037;-80
2022/07/24 01:49:04;;;;;;;7.63;5.47;;;27.80;96.70;;;;;;5084807;28;20040;-81
2022/07/24 01:51:33;;;;;;;7.90;5.60;;;27.80;96.70;;;;;;5076981;28;20524;-81
2022/07/24 01:54:02;;;;;;;8.52;5.60;;;27.80;96.70;;;;;;5073004;28;20067;-81
2022/07/24 01:56:32;;;;;;;6.85;5.50;;;27.90;96.70;;;;;;5087831;28;20152;-81
2022/07/24 01:59:00;;;;;;;6.05;5.45;;;27.80;96.70;;;;;;5068998;28;20143;-81
2022/07/24 02:01:35;;;;;;;6.93;5.35;;;27.90;96.70;;;;;;5092974;28;20375;-82
2022/07/24 02:04:03;;;;;;;7.97;5.63;;;27.80;96.70;;;;;;5078361;28;20048;-80
2022/07/24 02:06:31;;;;;;;6.63;5.07;;;27.70;96.70;;;;;;5085525;28;20071;-81
2022/07/24 02:08:59;;;;;;;7.13;5.32;;;27.60;96.70;;;;;;5074993;28;20048;-81
2022/07/24 02:11:28;;;;;;;8.70;5.53;;;27.50;96.70;;;;;;5076902;28;20135;-81
2022/07/24 02:14:00;;;;;;;6.32;5.07;;;27.50;96.70;;;;;;5080163;28;20101;-81
2022/07/24 02:16:28;;;;;;;8.57;5.55;;;27.50;96.70;;;;;;5082770;28;20047;-81
2022/07/24 02:18:56;;;;;;;5.20;4.63;;;27.60;96.70;;;;;;5078279;28;20036;-81
2022/07/24 02:21:25;;;;;;;6.68;5.43;;;27.60;96.70;;;;;;5088126;28;20539;-81
2022/07/24 02:23:53;;;;;;;7.03;5.18;;;27.50;96.70;;;;;;5076592;28;20178;-81
2022/07/24 02:26:21;;;;;;;6.80;5.15;;;27.50;96.70;;;;;;5082026;28;20036;-81
2022/07/24 02:28:49;;;;;;;6.07;4.82;;;27.30;96.70;;;;;;5073369;28;20063;-82
2022/07/24 02:31:19;;;;;;;6.57;4.68;;;27.30;96.70;;;;;;5081576;28;20048;-81
2022/07/24 02:33:47;;;;;;;7.97;5.22;;;27.30;96.70;;;;;;5084978;28;20041;-81
2022/07/24 02:36:16;;;;;;;7.00;5.28;;;27.30;96.70;;;;;;5081135;28;20139;-81
2022/07/24 02:38:44;;;;;;;6.28;5.55;;;27.50;96.70;;;;;;5082795;28;20051;-81
2022/07/24 02:41:12;;;;;;;8.20;4.90;;;27.40;96.70;;;;;;5066301;28;20167;-80
2022/07/24 02:43:40;;;;;;;7.72;4.72;;;27.40;96.70;;;;;;5060237;28;20052;-81
2022/07/24 02:46:09;;;;;;;5.72;4.95;;;27.40;96.70;;;;;;5085362;28;20051;-80
2022/07/24 02:48:40;;;;;;;6.93;5.63;;;27.40;96.70;;;;;;5077556;28;20051;-81
2022/07/24 02:51:08;;;;;;;8.40;5.63;;;27.40;96.70;;;;;;5076219;28;20543;-81
2022/07/24 02:53:36;;;;;;;7.18;5.72;;;27.40;96.70;;;;;;5075316;28;20472;-80
2022/07/24 02:56:04;;;;;;;6.03;5.05;;;27.30;96.70;;;;;;5071010;28;20036;-81
2022/07/24 02:58:33;;;;;;;8.60;5.10;;;27.30;96.70;;;;;;5083016;28;20054;-80
2022/07/24 03:01:01;;;;;;;6.20;4.65;;;27.20;96.70;;;;;;5084043;28;20044;-81
2022/07/24 03:03:29;;;;;;;7.47;5.30;;;27.10;96.70;;;;;;5062552;28;20052;-81
2022/07/24 03:05:59;;;;;;;7.82;5.57;;;27.00;96.70;;;;;;5075702;28;20506;-81
2022/07/24 03:08:27;;;;;;;6.78;5.25;;;27.10;96.70;;;;;;5081579;28;20810;-82
2022/07/24 03:10:55;;;;;;;8.43;5.40;;;27.20;96.70;;;;;;5057654;28;20462;-81
2022/07/24 03:13:23;;;;;;;5.65;4.85;;;27.30;96.70;;;;;;5075766;28;20059;-81
2022/07/24 03:15:52;;;;;;;7.95;5.30;;;27.20;96.70;;;;;;5080188;28;20089;-81
2022/07/24 03:18:20;;;;;;;6.05;5.00;;;27.20;96.70;;;;;;5082684;28;20154;-81
2022/07/24 03:20:50;;;;;;;6.28;4.63;;;27.20;96.70;;;;;;5079481;28;20304;-81
2022/07/24 03:23:20;;;;;;;8.45;5.00;;;27.10;96.70;;;;;;5072669;28;20055;-82
2022/07/24 03:25:48;;;;;;;7.55;5.25;;;27.10;96.70;;;;;;5074737;28;20052;-81
2022/07/24 03:28:17;;;;;;;6.40;5.18;;;27.10;96.70;;;;;;5065316;28;20121;-81
2022/07/24 03:30:45;;;;;;;6.70;5.75;;;27.10;96.70;;;;;;5064698;28;20537;-82
2022/07/24 03:33:13;;;;;;;5.80;4.80;;;27.10;96.70;;;;;;5080886;28;20338;-81
2022/07/24 03:35:41;;;;;;;7.60;5.40;;;27.20;96.70;;;;;;5080611;28;20142;-81
2022/07/24 03:38:10;;;;;;;6.40;5.22;;;27.30;96.70;;;;;;5063868;28;20036;-81
2022/07/24 03:40:40;;;;;;;6.90;5.35;;;27.20;96.70;;;;;;5062721;28;20048;-81
2022/07/24 03:43:08;;;;;;;7.40;5.30;;;27.20;96.70;;;;;;5074879;28;20068;-80
2022/07/24 03:45:36;;;;;;;6.93;5.43;;;27.10;96.70;;;;;;5081497;28;20089;-79
2022/07/24 03:48:05;;;;;;;5.70;5.20;;;26.90;96.70;;;;;;5079290;28;20072;-81
2022/07/24 03:50:33;;;;;;;10.25;5.07;;;26.80;96.70;;;;;;5081158;28;20118;-82
2022/07/24 03:53:02;;;;;;;7.13;5.88;;;26.80;96.70;;;;;;5070308;28;20463;-82
2022/07/24 03:55:33;;;;;;;6.78;5.50;;;26.80;96.70;;;;;;5064579;28;20052;-82
2022/07/24 03:58:03;;;;;;;6.30;5.38;;;26.80;96.70;;;;;;5078279;28;20132;-82
2022/07/24 04:00:32;;;;;;;6.45;4.95;;;26.90;96.70;;;;;;5057098;28;20098;-82
2022/07/24 04:03:00;;;;;;;5.93;4.65;;;26.90;96.70;;;;;;5076131;28;20051;-82
2022/07/24 04:05:28;;;;;;;7.07;5.10;;;27.00;96.70;;;;;;5063351;28;20094;-81
2022/07/24 04:07:57;;;;;;;5.45;4.95;;;26.90;96.70;;;;;;5089197;28;20048;-81
2022/07/24 04:10:25;;;;;;;7.70;4.82;;;27.00;96.70;;;;;;5086256;28;20089;-81
2022/07/24 04:12:53;;;;;;;5.85;5.10;;;27.00;96.70;;;;;;5084551;28;20048;-81
2022/07/24 04:15:22;;;;;;;6.35;5.45;;;27.00;96.70;;;;;;5088217;28;20535;-81
2022/07/24 04:17:51;;;;;;;8.68;5.80;;;27.10;96.70;;;;;;5082684;28;20103;-81
2022/07/24 04:20:19;;;;;;;8.70;5.63;;;27.00;96.70;;;;;;5068735;28;20109;-82
2022/07/24 04:22:48;;;;;;;8.40;5.72;;;26.90;96.70;;;;;;5060769;28;20941;-81
2022/07/24 04:25:16;;;;;;;6.95;5.68;;;26.70;96.70;;;;;;5079731;28;20044;-82
2022/07/24 04:27:45;;;;;;;7.68;5.88;;;26.60;96.70;;;;;;5077053;28;20048;-81
2022/07/24 04:30:13;;;;;;;6.50;5.70;;;26.80;96.70;;;;;;5081517;28;20048;-81
2022/07/24 04:32:43;;;;;;;9.20;5.53;;;26.70;96.70;;;;;;5061277;28;20055;-80
2022/07/24 04:35:11;;;;;;;7.65;5.72;;;26.90;96.70;;;;;;5082046;28;20126;-81
2022/07/24 04:37:39;;;;;;;8.82;6.60;;;26.90;96.70;;;;;;5073546;28;20051;-81
2022/07/24 04:40:09;;;;;;;6.82;6.22;;;26.90;96.70;;;;;;5088859;28;20051;-81
2022/07/24 04:42:38;;;;;;;6.63;5.80;;;27.00;96.70;;;;;;5083154;28;20055;-82
2022/07/24 04:45:08;;;;;;;9.02;6.07;;;26.80;96.70;;;;;;5102282;28;20094;-81
2022/07/24 04:47:37;;;;;;;7.88;6.20;;;26.80;96.70;;;;;;5054020;28;20056;-82
2022/07/24 04:50:08;;;;;;;8.05;7.25;;;26.80;96.70;;;;;;5074709;28;20066;-82
2022/07/24 04:52:36;;;;;;;11.68;8.93;;;26.80;96.70;;;;;;5082604;28;20036;-82
2022/07/24 04:55:05;;;;;;;12.73;10.05;;;26.90;96.70;;;;;;5094362;28;20218;-81
2022/07/24 04:57:33;;;;;;;10.60;8.25;;;27.00;96.70;;;;;;5079990;28;20044;-82
2022/07/24 05:00:03;;;;;;;8.30;7.45;;;27.10;96.70;;;;;;5073478;28;20444;-83
2022/07/24 05:02:31;;;;;;;8.68;7.00;;;27.00;96.70;;;;;;5082804;28;20090;-83
2022/07/24 05:04:59;;;;;;;8.57;7.25;;;26.90;96.70;;;;;;5072861;28;20094;-83
2022/07/24 05:07:29;;;;;;;10.20;6.20;;;26.90;96.70;;;;;;5071695;28;20048;-83
2022/07/24 05:09:58;;;;;;;7.97;6.40;;;26.90;96.70;;;;;;5080811;28;20140;-82
2022/07/24 05:12:27;;;;;;;6.63;5.68;;;27.00;96.70;;;;;;5074091;28;20055;-82
2022/07/24 05:14:55;;;;;;;8.23;6.55;;;27.00;96.70;;;;;;5082002;28;20145;-82
2022/07/24 05:17:23;;;;;;;7.43;6.20;;;27.20;96.70;;;;;;5079382;28;20040;-82
2022/07/24 05:19:51;;;;;;;7.05;6.35;;;27.30;96.70;;;;;;5083102;28;20053;-82
2022/07/24 05:22:20;;;;;;;6.47;5.88;;;27.40;96.70;;;;;;5080977;28;20044;-82
2022/07/24 05:24:49;;;;;;;9.27;6.30;;;27.40;96.70;;;;;;5071308;28;20135;-82
2022/07/24 05:27:18;;;;;;;8.02;5.90;;;27.40;96.70;;;;;;5082038;28;20516;-82
2022/07/24 05:29:46;;;;;;;7.32;6.40;;;27.20;96.70;;;;;;5076081;28;20464;-82
2022/07/24 05:32:15;;;;;;;8.05;6.10;;;27.20;96.70;;;;;;5058182;28;20067;-82
2022/07/24 05:34:43;;;;;;;7.45;6.32;;;27.30;96.70;;;;;;5063381;28;20055;-83
2022/07/24 05:37:11;;;;;;;8.48;6.40;;;27.40;96.70;;;;;;5065786;28;20055;-81
2022/07/24 05:39:40;;;;;;;8.57;6.30;;;27.40;96.70;;;;;;5061384;28;20502;-82
2022/07/24 05:42:09;;;;;;;7.25;6.43;;;27.40;96.70;;;;;;5076809;28;20147;-82
2022/07/24 05:44:38;;;;;;;7.13;6.53;;;27.50;96.70;;;;;;5080981;28;20044;-82
2022/07/24 05:47:07;;;;;;;8.18;6.15;;;27.50;96.70;;;;;;5078070;28;20040;-81
2022/07/24 05:49:36;;;;;;;11.25;6.72;;;27.60;96.70;;;;;;5073153;28;20048;-81
2022/07/24 05:52:08;;;;;;;9.07;6.03;;;27.60;96.70;;;;;;5060381;28;20053;-82
2022/07/24 05:54:37;;;;;;;6.85;6.00;;;27.60;96.70;;;;;;5079072;28;20130;-81
2022/07/24 05:57:05;;;;;;;7.60;6.80;;;27.60;96.70;;;;;;5079412;28;20040;-82
2022/07/24 05:59:35;;;;;;;9.60;7.15;;;27.70;96.70;;;;;;5077636;28;20072;-82
2022/07/24 06:02:04;;;;;;;9.38;7.60;;;27.70;96.70;;;;;;5067441;28;20044;-83
2022/07/24 06:04:32;;;;;;;8.32;7.50;;;27.60;96.70;;;;;;5064798;28;20040;-83
2022/07/24 06:07:01;;;;;;;7.65;6.95;;;27.60;96.70;;;;;;5090513;28;20138;-82
2022/07/24 06:09:29;;;;;;;9.35;6.90;;;27.60;96.70;;;;;;5077900;28;20032;-82
2022/07/24 06:11:57;;;;;;;8.57;6.93;;;27.70;96.70;;;;;;5079432;28;20564;-82
2022/07/24 06:14:25;;;;;;;9.50;8.05;;;27.80;96.70;;;;;;5071345;28;20040;-80
2022/07/24 06:16:55;;;;;;;9.52;8.07;;;27.80;96.70;;;;;;5076236;28;20068;-80
2022/07/24 06:19:25;;;;;;;10.13;8.18;;;27.90;96.70;;;;;;5083901;28;20086;-81
2022/07/24 06:21:53;;;;;;;9.65;7.78;;;28.00;96.70;;;;;;5087614;28;20048;-80
2022/07/24 06:24:21;;;;;;;10.88;8.35;;;27.90;96.70;;;;;;5066204;28;20063;-79
2022/07/24 06:26:49;;;;;;;9.75;7.78;;;28.00;96.70;;;;;;5086939;28;20066;-79
2022/07/24 06:29:37;;;;;;;8.40;7.43;;;27.90;96.70;;;;;;5082229;28;20137;-81
2022/07/24 06:32:07;;;;;;;9.63;7.22;;;28.00;96.70;;;;;;5075913;28;20044;-81
2022/07/24 06:34:35;;;;;;;9.57;7.70;;;28.00;96.70;;;;;;5081903;28;20683;-82
2022/07/24 06:37:03;;;;;;;10.05;8.48;;;28.10;96.70;;;;;;5081068;28;20131;-81
2022/07/24 06:39:31;;;;;;;9.48;7.68;;;28.10;96.70;;;;;;5081870;28;20406;-81
2022/07/24 06:41:59;;;;;;;10.82;7.57;;;28.10;96.70;;;;;;5070620;28;20052;-81
2022/07/24 06:44:29;;;;;;;12.02;8.88;;;28.10;96.70;;;;;;5082709;28;20070;-79
2022/07/24 06:46:57;;;;;;;9.90;8.35;;;28.20;96.70;;;;;;5091954;28;20147;-82
2022/07/24 06:49:26;;;;;;;9.38;7.43;;;28.10;96.70;;;;;;5079454;28;20048;-82
2022/07/24 06:51:54;;;;;;;9.32;8.10;;;28.20;96.70;;;;;;5066566;28;20072;-80
2022/07/24 06:54:22;;;;;;;10.48;8.02;;;28.10;96.70;;;;;;5090169;28;20481;-82
2022/07/24 06:56:51;;;;;;;7.93;7.13;;;28.10;96.70;;;;;;5070067;28;20071;-81
2022/07/24 06:59:19;;;;;;;15.63;7.85;;;28.20;96.70;;;;;;5068410;28;20052;-80
2022/07/24 07:01:47;;;;;;;10.18;7.88;;;28.20;96.70;;;;;;5072034;28;20040;-86
2022/07/24 07:04:15;;;;;;;10.13;7.60;;;28.30;96.70;;;;;;5092594;28;20467;-87
2022/07/24 07:06:45;;;;;;;11.10;7.78;;;28.40;96.70;;;;;;5081397;28;20068;-85
2022/07/24 07:09:13;;;;;;;10.02;8.10;;;28.50;96.70;;;;;;5083867;28;20036;-83
2022/07/24 07:11:41;;;;;;;12.30;8.27;;;28.50;96.70;;;;;;5084367;28;20123;-85
2022/07/24 07:14:19;;;;;;;11.20;8.43;;;28.50;96.70;;;;;;5077121;28;20043;-84
2022/07/24 07:16:47;;;;;;;9.95;8.95;;;28.70;96.70;;;;;;5087702;28;20044;-83
2022/07/24 07:19:15;;;;;;;9.07;7.68;;;28.80;96.70;;;;;;5082912;28;20070;-83
2022/07/24 07:21:45;;;;;;;12.15;8.52;;;28.90;96.70;;;;;;5081701;28;20040;-83
2022/07/24 07:24:13;;;;;;;10.43;8.55;;;28.90;96.70;;;;;;5079455;28;20071;-86
2022/07/24 07:26:41;;;;;;;13.00;8.82;;;28.90;96.70;;;;;;5078919;28;20085;-85
2022/07/24 07:29:09;;;;;;;14.02;8.65;;;29.00;96.70;;;;;;5075336;28;20044;-85
2022/07/24 07:31:37;;;;;;;10.38;8.23;;;29.10;96.70;;;;;;5076610;28;20048;-86
2022/07/24 07:34:06;;;;;;;11.35;8.75;;;29.20;96.70;;;;;;5083646;28;20071;-81
2022/07/24 07:36:35;;;;;;;13.60;8.80;;;29.20;96.70;;;;;;5083294;28;20036;-81
2022/07/24 07:39:04;;;;;;;14.75;9.50;;;29.20;96.70;;;;;;5078189;28;20418;-82
2022/07/24 07:41:33;;;;;;;10.13;7.95;;;29.10;96.70;;;;;;5080535;28;20219;-81
2022/07/24 07:44:01;;;;;;;11.60;9.38;;;29.10;96.70;;;;;;5078906;28;20044;-82
2022/07/24 07:46:30;;;;;;;11.55;8.70;;;29.20;96.70;;;;;;5077983;28;20040;-78
2022/07/24 07:48:58;;;;;;;10.07;8.52;;;29.20;96.70;;;;;;5076715;28;20097;-80
2022/07/24 07:51:26;;;;;;;14.15;9.25;;;29.30;96.70;;;;;;5083064;28;20449;-76
2022/07/24 07:53:55;;;;;;;12.00;8.60;;;29.30;96.70;;;;;;5086633;28;20485;-81
2022/07/24 07:56:25;;;;;;;12.00;8.85;;;29.30;96.70;;;;;;5060569;28;20068;-81
2022/07/24 07:58:53;;;;;;;13.85;9.55;;;29.30;96.70;;;;;;5085772;28;20438;-82
2022/07/24 08:01:28;;;;;;;11.60;9.07;;;29.40;96.70;;;;;;5069594;28;20055;-79
2022/07/24 08:03:56;;;;;;;11.80;8.77;;;29.40;96.70;;;;;;5075768;28;20514;-82
2022/07/24 08:06:24;;;;;;;11.65;8.93;;;29.40;96.70;;;;;;5079851;28;20529;-82
2022/07/24 08:08:53;;;;;;;9.48;8.50;;;29.50;96.70;;;;;;5067039;28;20053;-81
2022/07/24 08:11:24;;;;;;;11.38;9.25;;;29.60;96.70;;;;;;5076499;28;20049;-82
2022/07/24 08:13:55;;;;;;;10.25;8.38;;;29.60;96.70;;;;;;5077738;28;20467;-82
2022/07/24 08:16:23;;;;;;;14.48;8.82;;;29.60;96.70;;;;;;5083350;28;20133;-82
2022/07/24 08:18:51;;;;;;;11.10;9.05;;;29.60;96.70;;;;;;5085225;28;20040;-83
2022/07/24 08:21:20;;;;;;;10.10;8.77;;;29.70;96.70;;;;;;5052499;28;20041;-85
2022/07/24 08:23:48;;;;;;;10.30;9.13;;;29.80;96.70;;;;;;5069197;28;20044;-83
2022/07/24 08:26:17;;;;;;;9.95;8.80;;;29.80;96.70;;;;;;5081296;28;20148;-87
2022/07/24 08:28:46;;;;;;;12.05;9.32;;;29.80;96.70;;;;;;5067836;28;20075;-84
2022/07/24 08:31:15;;;;;;;13.27;9.77;;;29.90;96.70;;;;;;5073330;28;20650;-83
2022/07/24 08:33:44;;;;;;;10.02;8.43;;;29.90;96.70;;;;;;5078510;28;20060;-85
2022/07/24 08:36:12;;;;;;;10.55;8.45;;;30.00;96.70;;;;;;5084509;28;20047;-82
2022/07/24 08:38:40;;;;;;;14.40;9.30;;;30.00;96.70;;;;;;5086823;28;20033;-87
2022/07/24 08:41:09;;;;;;;11.13;9.07;;;30.10;96.70;;;;;;5075103;28;20102;-86
2022/07/24 08:43:37;;;;;;;10.63;8.90;;;30.20;96.70;;;;;;5060560;28;20048;-84
2022/07/24 08:46:10;;;;;;;11.73;8.93;;;30.30;96.70;;;;;;5085303;28;20087;-84
2022/07/24 08:48:43;;;;;;;13.40;9.73;;;30.40;96.70;;;;;;5064364;28;20643;-82
2022/07/24 08:51:13;;;;;;;11.95;8.88;;;30.40;96.70;;;;;;5067570;28;20048;-83
2022/07/24 08:53:43;;;;;;;12.13;8.13;;;30.40;96.70;;;;;;5071908;28;20064;-83
2022/07/24 08:56:11;;;;;;;11.77;8.82;;;30.40;96.70;;;;;;5087410;28;20039;-83
2022/07/24 08:58:40;;;;;;;15.05;8.98;;;30.50;96.70;;;;;;5086116;28;20040;-83
2022/07/24 09:01:10;;;;;;;11.90;8.63;;;30.60;96.70;;;;;;5090034;28;20048;-85
2022/07/24 09:03:40;;;;;;;13.23;8.57;;;30.60;96.70;;;;;;5070249;28;20059;-85
2022/07/24 09:06:11;;;;;;;11.55;9.20;;;30.60;96.70;;;;;;5088270;28;20074;-84
2022/07/24 09:08:40;;;;;;;10.23;8.43;;;30.70;96.70;;;;;;5090788;28;20073;-84
2022/07/24 09:11:09;;;;;;;10.75;8.32;;;30.80;96.70;;;;;;5079506;28;20076;-84
2022/07/24 09:16:26;;;;;;;11.45;8.05;;;30.90;96.70;;;;;;5085679;28;20048;-82
2022/07/24 09:19:04;;;;;;;11.35;8.48;;;31.00;96.70;;;;;;5088665;28;20087;-83
2022/07/24 09:21:37;;;;;;;8.52;7.63;;;31.00;96.70;;;;;;5083161;28;20113;-79
2022/07/24 09:24:12;;;;;;;12.02;8.20;;;31.10;96.70;;;;;;5087730;28;20041;-80
2022/07/24 09:26:45;;;;;;;11.90;7.40;;;31.20;96.70;;;;;;5070642;28;20055;-81
2022/07/24 09:29:15;;;;;;;7.85;6.25;;;31.20;96.70;;;;;;5083435;28;21093;-82
2022/07/24 09:31:53;;;;;;;8.15;6.13;;;31.30;96.70;;;;;;5086292;28;20060;-79
2022/07/24 09:34:22;;;;;;;7.07;6.07;;;31.40;96.70;;;;;;5080636;28;20041;-78
2022/07/24 09:37:01;;;;;;;9.27;6.40;;;31.50;96.70;;;;;;5085218;28;20040;-82
2022/07/24 09:39:33;;;;;;;7.38;5.20;;;31.60;96.70;;;;;;5073646;28;20079;-81
2022/07/24 09:42:04;;;;;;;10.93;5.80;;;31.70;96.70;;;;;;5089877;28;20089;-81
2022/07/24 09:44:32;;;;;;;7.32;5.18;;;31.70;96.70;;;;;;5069957;28;20048;-77
2022/07/24 09:47:04;;;;;;;9.43;5.97;;;31.80;96.70;;;;;;5080987;28;20125;-80
2022/07/24 09:49:34;;;;;;;7.90;4.93;;;31.90;96.70;;;;;;5086731;28;20457;-79
2022/07/24 09:52:12;;;;;;;5.70;4.70;;;32.00;96.70;;;;;;5076240;28;20052;-81
2022/07/24 09:54:41;;;;;;;5.57;4.40;;;32.00;96.70;;;;;;5077834;28;20043;-81
2022/07/24 09:57:19;;;;;;;7.18;4.82;;;31.90;96.70;;;;;;5073361;28;20044;-79
2022/07/24 09:59:49;;;;;;;6.53;4.53;;;32.10;96.70;;;;;;5078802;28;20135;-84
2022/07/24 10:02:26;;;;;;;9.35;5.38;;;32.10;96.70;;;;;;5091268;28;20075;-82
2022/07/24 10:04:57;;;;;;;5.78;4.95;;;32.30;96.70;;;;;;5080948;28;20537;-82
2022/07/24 10:07:26;;;;;;;6.57;5.03;;;32.30;96.70;;;;;;5085133;28;20048;-85
2022/07/24 10:09:56;;;;;;;6.50;4.93;;;32.40;96.70;;;;;;5085294;28;20051;-80
2022/07/24 10:12:27;;;;;;;7.40;4.70;;;32.40;96.70;;;;;;5089780;28;20067;-80
2022/07/24 10:14:57;;;;;;;5.88;4.75;;;32.50;96.70;;;;;;5087860;28;20082;-83
2022/07/24 10:17:34;;;;;;;6.55;4.32;;;32.70;96.70;;;;;;5086930;28;20052;-84
2022/07/24 10:20:38;;;;;;;4.50;4.07;;;32.80;96.70;;;;;;5088122;28;20036;-83
2022/07/24 10:23:25;;;;;;;4.47;3.90;;;32.80;96.70;;;;;;5068065;28;20056;-82
2022/07/24 10:25:55;;;;;;;5.78;4.18;;;32.80;96.70;;;;;;5086518;28;20044;-83
2022/07/24 10:28:37;;;;;;;6.15;4.00;;;32.90;96.70;;;;;;5080031;28;20067;-82
2022/07/24 10:31:07;;;;;;;6.60;3.78;;;32.90;96.70;;;;;;5081948;28;20048;-82
2022/07/24 10:33:40;;;;;;;6.82;3.83;;;33.10;96.70;;;;;;5087071;28;20455;-82
2022/07/24 10:36:19;;;;;;;6.20;4.00;;;33.10;96.70;;;;;;5079700;28;20055;-81
2022/07/24 10:38:56;;;;;;;6.13;4.50;;;33.00;96.70;;;;;;5085833;28;20051;-82
2022/07/24 10:41:26;;;;;;;6.63;3.80;;;33.20;96.70;;;;;;5085079;28;20471;-82
2022/07/24 10:44:14;;;;;;;4.55;3.65;;;33.20;96.70;;;;;;5061949;28;20127;-82
2022/07/24 10:47:07;;;;;;;5.75;3.45;;;33.10;96.70;;;;;;5081494;28;20333;-82
2022/07/24 10:49:53;;;;;;;6.88;4.00;;;33.20;96.70;;;;;;5071292;28;20048;-80
2022/07/24 10:52:25;;;;;;;4.90;3.50;;;33.30;96.70;;;;;;5078035;28;20056;-81
2022/07/24 10:55:30;;;;;;;6.63;2.95;;;33.20;96.70;;;;;;5081910;28;20052;-79
2022/07/24 10:58:11;;;;;;;6.22;3.45;;;33.20;96.70;;;;;;5082071;28;20074;-78
2022/07/24 11:00:43;;;;;;;5.85;3.10;;;33.40;96.70;;;;;;5083585;28;20542;-80
2022/07/24 11:03:19;;;;;;;4.53;3.20;;;33.50;96.70;;;;;;5081867;28;20043;-80
2022/07/24 11:08:49;;;;;;;6.25;3.28;;;33.50;96.70;;;;;;5138237;27;20432;-77
2022/07/24 11:11:19;;;;;;;5.07;3.35;;;33.50;96.70;;;;;;5103580;27;20063;-81
2022/07/24 11:13:50;;;;;;;4.18;2.88;;;33.60;96.70;;;;;;5119835;27;20040;-80
2022/07/24 11:16:23;;;;;;;4.15;3.10;;;33.60;96.70;;;;;;5111161;27;20051;-80
2022/07/24 11:19:34;;;;;;;6.15;3.53;;;33.70;96.70;;;;;;5112815;27;20406;-78
2022/07/24 11:22:08;;;;;;;5.15;3.55;;;33.70;96.70;;;;;;5071684;28;20058;-78
2022/07/24 11:25:02;;;;;;;4.10;3.15;;;33.70;96.70;;;;;;5118408;27;20051;-78
2022/07/24 11:27:42;;;;;;;5.43;3.28;;;33.70;96.70;;;;;;5095499;27;20055;-80
2022/07/24 11:30:11;;;;;;;5.75;3.63;;;33.80;96.70;;;;;;5098730;28;20452;-79
2022/07/24 11:32:42;;;;;;;7.57;3.97;;;33.60;96.70;;;;;;5094566;27;20155;-78
2022/07/24 11:35:10;;;;;;;4.93;3.92;;;33.70;96.70;;;;;;5117563;27;20043;-79
2022/07/24 11:37:40;;;;;;;5.95;3.70;;;33.80;96.70;;;;;;5099489;28;20104;-80
2022/07/24 11:40:15;;;;;;;4.80;3.58;;;33.90;96.70;;;;;;5072918;28;20622;-76
2022/07/24 11:42:43;;;;;;;4.63;3.40;;;34.00;96.70;;;;;;5112183;27;20043;-75
2022/07/24 11:45:12;;;;;;;4.68;3.75;;;33.90;96.70;;;;;;5098896;27;20044;-77
2022/07/24 11:47:40;;;;;;;5.95;3.90;;;34.00;96.70;;;;;;5099004;28;20066;-77
2022/07/24 11:50:09;;;;;;;5.78;3.92;;;34.00;96.70;;;;;;5125332;27;20378;-80
2022/07/24 11:52:39;;;;;;;4.15;3.78;;;34.10;96.70;;;;;;5086131;27;20451;-80
2022/07/24 11:55:11;;;;;;;6.03;3.72;;;34.20;96.70;;;;;;5096498;28;20550;-80
2022/07/24 11:57:46;;;;;;;9.70;3.97;;;34.30;96.70;;;;;;5086329;27;20067;-77
2022/07/24 12:00:35;;;;;;;4.78;4.13;;;34.30;96.70;;;;;;5115565;27;20043;-78
2022/07/24 12:03:05;;;;;;;4.40;4.00;;;34.40;96.70;;;;;;5099967;28;20075;-80
2022/07/24 12:05:40;;;;;;;4.97;4.30;;;34.40;96.70;;;;;;5087515;27;20047;-80
2022/07/24 12:08:19;;;;;;;6.82;4.32;;;34.50;96.70;;;;;;5124344;27;20067;-80
2022/07/24 12:10:55;;;;;;;5.55;4.38;;;34.60;96.70;;;;;;5119696;27;20046;-80
2022/07/24 12:13:24;;;;;;;5.95;4.00;;;34.80;96.70;;;;;;5116889;27;20966;-77
2022/07/24 12:15:52;;;;;;;6.85;4.60;;;34.60;96.70;;;;;;5096626;27;20054;-78
2022/07/24 12:18:21;;;;;;;5.05;4.55;;;34.70;96.70;;;;;;5105280;28;20040;-81
2022/07/24 12:20:59;;;;;;;5.63;4.35;;;34.60;96.70;;;;;;5089474;28;20064;-80
2022/07/24 12:23:30;;;;;;;5.15;3.90;;;34.60;96.70;;;;;;5081586;28;20125;-80
2022/07/24 12:26:03;;;;;;;4.57;4.18;;;34.70;96.70;;;;;;5085029;28;20046;-78
2022/07/24 12:28:32;;;;;;;6.38;4.32;;;34.70;96.70;;;;;;5088195;28;20096;-78
2022/07/24 12:31:08;;;;;;;4.55;4.03;;;34.70;96.70;;;;;;5104877;27;20048;-77
2022/07/24 12:33:37;;;;;;;6.32;4.28;;;34.70;96.70;;;;;;5075692;28;20055;-78
2022/07/24 12:36:11;;;;;;;5.53;4.00;;;34.90;96.70;;;;;;5098909;27;20093;-78
2022/07/24 12:38:49;;;;;;;7.22;4.32;;;34.90;96.70;;;;;;5081549;28;20075;-77
2022/07/24 12:41:25;;;;;;;5.85;4.00;;;34.80;96.70;;;;;;5085821;27;20049;-79
2022/07/24 12:43:57;;;;;;;5.30;3.97;;;34.70;96.70;;;;;;5099699;27;20121;-79
2022/07/24 12:46:31;;;;;;;6.40;4.40;;;34.70;96.70;;;;;;5094037;27;20067;-79
2022/07/24 12:49:01;;;;;;;5.82;4.10;;;34.70;96.70;;;;;;5081267;27;20046;-78
2022/07/24 12:51:45;;;;;;;5.65;4.63;;;34.70;96.70;;;;;;5106837;27;20044;-79
2022/07/24 12:54:17;;;;;;;7.47;4.35;;;34.70;96.70;;;;;;5071067;27;20504;-77
2022/07/24 12:56:51;;;;;;;6.45;4.82;;;34.60;96.70;;;;;;5100478;27;20098;-78
2022/07/24 12:59:26;;;;;;;5.00;4.00;;;34.70;96.70;;;;;;5083298;28;20052;-76
2022/07/24 13:01:57;;;;;;;5.63;4.57;;;34.80;96.70;;;;;;5088094;28;20040;-76
2022/07/24 13:04:27;;;;;;;7.75;4.63;;;34.90;96.70;;;;;;5104260;27;20998;-77
2022/07/24 13:06:57;;;;;;;7.70;4.63;;;34.90;96.70;;;;;;5075108;28;20189;-80
2022/07/24 13:09:27;;;;;;;5.30;4.53;;;34.80;96.70;;;;;;5072990;28;20055;-76